createdAt,value
2018-06-07T00:02:26.628Z,23.40
2018-06-07T00:04:54.087Z,23.50
2018-06-07T00:07:21.593Z,23.30
2018-06-07T00:09:49.154Z,23.40
2018-06-07T00:12:16.627Z,23.70
2018-06-07T00:14:44.856Z,23.50
2018-06-07T00:17:12.319Z,23.40
2018-06-07T00:19:39.779Z,23.00
2018-06-07T00:22:07.275Z,23.00
2018-06-07T00:24:34.842Z,22.90
2018-06-07T00:27:02.373Z,22.90
2018-06-07T00:29:29.885Z,23.10
2018-06-07T00:31:57.343Z,23.40
2018-06-07T00:34:24.799Z,23.40
2018-06-07T00:36:52.247Z,23.30
2018-06-07T00:39:19.759Z,23.40
2018-06-07T00:41:47.183Z,23.30
2018-06-07T00:44:14.659Z,23.20
2018-06-07T00:46:43.658Z,22.90
2018-06-07T00:49:11.202Z,22.90
2018-06-07T00:51:38.771Z,22.90
2018-06-07T00:54:06.335Z,23.10
2018-06-07T00:56:34.006Z,23.00
2018-06-07T00:59:01.576Z,23.00
2018-06-07T01:01:29.126Z,23.00
2018-06-07T01:03:56.704Z,23.00
2018-06-07T01:06:24.919Z,22.90
2018-06-07T01:08:52.431Z,22.90
2018-06-07T01:11:19.912Z,23.00
2018-06-07T01:13:48.899Z,23.00
2018-06-07T01:16:16.378Z,23.00
2018-06-07T01:18:44.602Z,23.20
2018-06-07T01:21:12.059Z,23.10
2018-06-07T01:23:39.522Z,23.10
2018-06-07T01:26:07.023Z,22.80
2018-06-07T01:28:34.587Z,22.60
2018-06-07T01:31:02.057Z,22.80
2018-06-07T01:33:32.337Z,22.70
2018-06-07T01:35:59.793Z,22.80
2018-06-07T01:38:39.127Z,23.00
2018-06-07T01:41:06.593Z,22.80
2018-06-07T01:43:34.103Z,22.50
2018-06-07T01:46:01.562Z,22.30
2018-06-07T01:48:29.011Z,22.40
2018-06-07T01:50:56.479Z,22.20
2018-06-07T01:53:23.940Z,22.00
2018-06-07T01:55:51.403Z,22.30
2018-06-07T01:58:18.859Z,22.40
2018-06-07T02:00:46.431Z,22.50
2018-06-07T02:03:14.000Z,22.30
2018-06-07T02:05:41.555Z,22.10
2018-06-07T02:08:09.019Z,21.80
2018-06-07T02:10:36.479Z,22.00
2018-06-07T02:13:03.933Z,21.70
2018-06-07T02:15:31.419Z,21.70
2018-06-07T02:17:58.984Z,21.80
2018-06-07T02:20:26.546Z,21.70
2018-06-07T02:22:54.001Z,21.50
2018-06-07T02:25:21.560Z,21.30
2018-06-07T02:27:49.019Z,21.50
2018-06-07T02:30:16.477Z,21.70
2018-06-07T02:32:43.952Z,21.40
2018-06-07T02:35:11.407Z,21.70
2018-06-07T02:37:38.971Z,21.30
2018-06-07T02:40:06.457Z,21.30
2018-06-07T02:42:34.715Z,21.80
2018-06-07T02:45:02.176Z,21.80
2018-06-07T02:47:29.752Z,22.00
2018-06-07T02:49:58.291Z,21.80
2018-06-07T02:52:25.743Z,21.90
2018-06-07T02:54:53.199Z,22.00
2018-06-07T02:57:21.539Z,21.70
2018-06-07T02:59:49.099Z,21.60
2018-06-07T03:02:16.661Z,21.60
2018-06-07T03:04:44.127Z,21.80
2018-06-07T03:07:11.592Z,21.60
2018-06-07T03:09:39.039Z,21.60
2018-06-07T03:12:06.513Z,21.60
2018-06-07T03:14:33.969Z,21.70
2018-06-07T03:17:01.543Z,21.50
2018-06-07T03:19:29.102Z,21.50
2018-06-07T03:21:56.557Z,21.50
2018-06-07T03:24:24.012Z,21.20
2018-06-07T03:26:51.490Z,21.30
2018-06-07T03:29:18.951Z,21.30
2018-06-07T03:31:46.528Z,21.50
2018-06-07T03:34:13.999Z,21.60
2018-06-07T03:36:41.458Z,21.50
2018-06-07T03:39:08.915Z,21.60
2018-06-07T03:41:37.897Z,21.20
2018-06-07T03:44:05.458Z,21.20
2018-06-07T03:46:33.037Z,21.40
2018-06-07T03:49:00.591Z,21.40
2018-06-07T03:51:28.069Z,21.40
2018-06-07T03:53:57.027Z,21.20
2018-06-07T03:56:25.199Z,21.20
2018-06-07T03:58:52.652Z,21.30
2018-06-07T04:01:20.114Z,21.00
2018-06-07T04:03:47.577Z,20.80
2018-06-07T04:06:15.138Z,20.70
2018-06-07T04:08:42.551Z,20.90
2018-06-07T04:11:10.773Z,21.00
2018-06-07T04:13:38.289Z,21.00
2018-06-07T04:16:05.754Z,20.90
2018-06-07T04:18:33.199Z,20.90
2018-06-07T04:21:00.727Z,21.00
2018-06-07T04:23:28.195Z,20.90
2018-06-07T04:25:55.656Z,21.10
2018-06-07T04:28:23.118Z,21.00
2018-06-07T04:30:50.585Z,20.90
2018-06-07T04:33:18.101Z,20.80
2018-06-07T04:35:45.547Z,20.80
2018-06-07T04:38:13.002Z,20.80
2018-06-07T04:40:40.570Z,20.80
2018-06-07T04:43:08.133Z,20.70
2018-06-07T04:45:35.595Z,20.70
2018-06-07T04:48:03.151Z,20.80
2018-06-07T04:50:30.622Z,20.50
2018-06-07T04:52:58.091Z,20.50
2018-06-07T04:55:25.603Z,20.40
2018-06-07T04:57:53.081Z,20.50
2018-06-07T05:00:20.542Z,20.60
2018-06-07T05:02:49.949Z,20.60
2018-06-07T05:05:17.409Z,20.70
2018-06-07T05:07:44.868Z,20.70
2018-06-07T05:10:12.329Z,20.70
2018-06-07T05:12:39.799Z,20.60
2018-06-07T05:15:07.294Z,20.30
2018-06-07T05:17:34.763Z,20.30
2018-06-07T05:20:03.006Z,20.50
2018-06-07T05:22:30.496Z,20.50
2018-06-07T05:24:58.139Z,20.50
2018-06-07T05:27:26.297Z,20.20
2018-06-07T05:29:53.763Z,20.20
2018-06-07T05:32:21.226Z,20.20
2018-06-07T05:34:48.687Z,20.50
2018-06-07T05:37:16.161Z,20.40
2018-06-07T05:39:43.636Z,20.30
2018-06-07T05:42:11.094Z,20.50
2018-06-07T05:44:39.327Z,20.50
2018-06-07T05:47:07.563Z,20.50
2018-06-07T05:49:35.027Z,20.50
2018-06-07T05:52:02.583Z,20.70
2018-06-07T05:54:30.744Z,20.60
2018-06-07T05:56:58.227Z,20.60
2018-06-07T05:59:25.837Z,20.60
2018-06-07T06:01:53.280Z,20.60
2018-06-07T06:04:22.241Z,20.50
2018-06-07T06:06:49.696Z,20.50
2018-06-07T06:09:18.140Z,20.60
2018-06-07T06:11:45.583Z,20.60
2018-06-07T06:14:13.040Z,20.70
2018-06-07T06:16:40.603Z,20.80
2018-06-07T06:19:08.053Z,20.80
2018-06-07T06:21:35.513Z,20.70
2018-06-07T06:24:02.977Z,20.80
2018-06-07T06:26:30.435Z,20.80
2018-06-07T06:28:57.994Z,20.90
2018-06-07T06:31:25.454Z,21.00
2018-06-07T06:33:52.924Z,21.20
2018-06-07T06:36:20.487Z,21.30
2018-06-07T06:38:47.947Z,21.30
2018-06-07T06:41:15.473Z,21.40
2018-06-07T06:43:42.932Z,21.40
2018-06-07T06:46:10.439Z,21.60
2018-06-07T06:48:37.916Z,21.70
2018-06-07T06:51:06.203Z,21.90
2018-06-07T06:53:34.431Z,22.00
2018-06-07T06:56:01.903Z,22.00
2018-06-07T06:58:29.372Z,22.10
2018-06-07T07:00:56.848Z,22.20
2018-06-07T07:03:24.299Z,22.30
2018-06-07T07:05:51.788Z,22.40
2018-06-07T07:08:20.777Z,22.40
2018-06-07T07:10:48.246Z,22.40
2018-06-07T07:13:15.712Z,22.40
2018-06-07T07:15:43.171Z,22.50
2018-06-07T07:18:10.719Z,22.60
2018-06-07T07:20:39.432Z,22.70
2018-06-07T07:23:06.925Z,22.70
2018-06-07T07:25:35.156Z,22.60
2018-06-07T07:28:02.632Z,22.60
2018-06-07T07:30:30.185Z,22.70
2018-06-07T07:32:57.743Z,22.80
2018-06-07T07:35:25.202Z,22.90
2018-06-07T07:37:52.670Z,22.90
2018-06-07T07:40:20.123Z,22.90
2018-06-07T07:42:47.580Z,23.00
2018-06-07T07:45:15.100Z,23.10
2018-06-07T07:47:42.612Z,23.10
2018-06-07T07:50:10.095Z,23.10
2018-06-07T07:52:37.551Z,23.10
2018-06-07T07:55:05.107Z,23.10
2018-06-07T07:57:32.673Z,23.10
2018-06-07T08:00:00.148Z,23.00
2018-06-07T08:02:27.606Z,23.00
2018-06-07T08:04:55.172Z,23.10
2018-06-07T08:07:22.636Z,23.10
2018-06-07T08:09:50.193Z,23.20
2018-06-07T08:12:17.656Z,23.20
2018-06-07T08:14:45.118Z,23.10
2018-06-07T08:17:12.601Z,23.30
2018-06-07T08:19:40.819Z,23.40
2018-06-07T08:22:08.281Z,23.40
2018-06-07T08:24:35.773Z,23.40
2018-06-07T08:27:03.243Z,23.40
2018-06-07T08:29:30.791Z,23.40
2018-06-07T08:31:58.269Z,23.50
2018-06-07T08:34:25.834Z,23.70
2018-06-07T08:36:53.391Z,23.50
2018-06-07T08:39:20.892Z,23.70
2018-06-07T08:41:48.418Z,23.80
2018-06-07T08:44:15.981Z,23.80
2018-06-07T08:46:43.553Z,23.80
2018-06-07T08:49:11.021Z,24.00
2018-06-07T08:51:38.574Z,24.10
2018-06-07T08:54:06.145Z,24.30
2018-06-07T08:56:33.708Z,24.40
2018-06-07T08:59:01.300Z,24.50
2018-06-07T09:01:28.728Z,24.60
2018-06-07T09:03:56.217Z,24.50
2018-06-07T09:06:24.487Z,24.60
2018-06-07T09:08:53.464Z,24.60
2018-06-07T09:11:20.935Z,24.60
2018-06-07T09:13:48.488Z,24.70
2018-06-07T09:16:15.971Z,24.70
2018-06-07T09:18:43.443Z,24.70
2018-06-07T09:21:11.766Z,24.80
2018-06-07T09:23:39.207Z,24.80
2018-06-07T09:26:07.559Z,24.70
2018-06-07T09:28:35.117Z,24.60
2018-06-07T09:31:02.582Z,25.20
2018-06-07T09:33:30.060Z,25.10
2018-06-07T09:35:59.144Z,25.20
2018-06-07T09:38:27.425Z,25.20
2018-06-07T09:40:54.890Z,25.10
2018-06-07T09:43:22.438Z,25.30
2018-06-07T09:45:50.009Z,25.30
2018-06-07T09:48:17.474Z,25.30
2018-06-07T09:50:45.051Z,25.30
2018-06-07T09:53:13.321Z,25.30
2018-06-07T09:55:40.787Z,25.30
2018-06-07T09:58:08.315Z,25.30
2018-06-07T10:00:36.470Z,25.20
2018-06-07T10:03:03.931Z,25.20
2018-06-07T10:05:31.448Z,25.10
2018-06-07T10:07:58.912Z,24.90
2018-06-07T10:10:26.380Z,24.90
2018-06-07T10:12:54.603Z,25.30
2018-06-07T10:15:22.076Z,25.30
2018-06-07T10:17:50.667Z,25.80
2018-06-07T10:20:18.165Z,25.90
2018-06-07T10:22:45.637Z,26.00
2018-06-07T10:25:13.889Z,25.60
2018-06-07T10:27:41.356Z,25.50
2018-06-07T10:30:08.807Z,25.80
2018-06-07T10:32:36.277Z,25.70
2018-06-07T10:35:03.731Z,25.80
2018-06-07T10:37:31.222Z,25.90
2018-06-07T10:39:59.499Z,25.90
2018-06-07T10:42:26.988Z,25.80
2018-06-07T10:44:55.517Z,25.70
2018-06-07T10:47:22.964Z,25.70
2018-06-07T10:49:50.449Z,25.70
2018-06-07T10:52:17.933Z,25.70
2018-06-07T10:54:45.500Z,25.60
2018-06-07T10:57:13.061Z,25.60
2018-06-07T10:59:40.539Z,25.70
2018-06-07T11:02:08.756Z,25.70
2018-06-07T11:04:36.270Z,25.70
2018-06-07T11:07:03.727Z,25.80
2018-06-07T11:09:31.191Z,25.90
2018-06-07T11:11:58.661Z,25.90
2018-06-07T11:14:26.132Z,25.80
2018-06-07T11:16:54.355Z,26.00
2018-06-07T11:19:21.836Z,26.00
2018-06-07T11:21:49.296Z,26.00
2018-06-07T11:24:16.762Z,26.00
2018-06-07T11:26:44.219Z,26.10
2018-06-07T11:29:11.770Z,26.40
2018-06-07T11:31:39.224Z,26.30
2018-06-07T11:34:07.830Z,26.50
2018-06-07T11:36:35.327Z,26.50
2018-06-07T11:39:02.783Z,26.60
2018-06-07T11:41:30.359Z,26.60
2018-06-07T11:43:57.824Z,26.70
2018-06-07T11:46:25.371Z,26.80
2018-06-07T11:48:52.855Z,26.90
2018-06-07T11:51:20.295Z,26.90
2018-06-07T11:53:47.762Z,26.90
2018-06-07T11:56:16.127Z,26.90
2018-06-07T11:58:44.081Z,27.00
2018-06-07T12:01:11.528Z,27.20
2018-06-07T12:03:39.001Z,27.30
2018-06-07T12:06:06.492Z,27.40
2018-06-07T12:08:33.968Z,27.40
2018-06-07T12:11:01.434Z,27.40
2018-06-07T12:13:29.001Z,27.50
2018-06-07T12:15:56.469Z,27.50
2018-06-07T12:18:25.438Z,27.60
2018-06-07T12:20:52.895Z,27.60
2018-06-07T12:23:20.375Z,27.70
2018-06-07T12:25:47.952Z,27.70
2018-06-07T12:28:16.188Z,27.90
2018-06-07T12:30:43.643Z,27.90
2018-06-07T12:33:11.131Z,27.90
2018-06-07T12:35:38.609Z,28.00
2018-06-07T12:38:06.063Z,28.10
2018-06-07T12:40:33.601Z,28.20
2018-06-07T12:43:01.786Z,28.30
2018-06-07T12:45:29.268Z,28.30
2018-06-07T12:47:56.738Z,28.40
2018-06-07T12:50:24.196Z,28.60
2018-06-07T12:52:51.764Z,28.50
2018-06-07T12:55:19.329Z,28.50
2018-06-07T12:57:46.902Z,28.70
2018-06-07T13:00:14.358Z,28.70
2018-06-07T13:02:42.192Z,28.80
2018-06-07T13:05:09.692Z,28.70
2018-06-07T13:07:37.141Z,28.80
2018-06-07T13:10:05.845Z,29.00
2018-06-07T13:12:33.298Z,29.00
2018-06-07T13:15:00.933Z,29.10
2018-06-07T13:17:28.478Z,29.20
2018-06-07T13:19:56.007Z,29.30
2018-06-07T13:22:27.917Z,29.40
2018-06-07T13:24:55.557Z,29.30
2018-06-07T13:27:23.800Z,29.70
2018-06-07T13:29:51.267Z,29.60
2018-06-07T13:32:18.749Z,29.60
2018-06-07T13:34:46.311Z,29.70
2018-06-07T13:37:13.769Z,29.70
2018-06-07T13:39:42.760Z,29.70
2018-06-07T13:42:10.223Z,29.70
2018-06-07T13:44:38.499Z,29.80
2018-06-07T13:47:06.067Z,29.90
2018-06-07T13:49:33.532Z,30.00
2018-06-07T13:52:00.983Z,30.00
2018-06-07T13:54:28.548Z,29.90
2018-06-07T13:56:56.116Z,29.90
2018-06-07T13:59:23.677Z,30.00
2018-06-07T14:01:51.143Z,30.10
2018-06-07T14:04:18.707Z,30.10
2018-06-07T14:06:46.284Z,30.10
2018-06-07T14:09:15.733Z,30.30
2018-06-07T14:11:43.189Z,30.30
2018-06-07T14:14:10.704Z,30.30
2018-06-07T14:16:38.283Z,30.30
2018-06-07T14:19:05.747Z,30.30
2018-06-07T14:21:33.353Z,30.20
2018-06-07T14:24:00.817Z,30.20
2018-06-07T14:26:28.272Z,30.30
2018-06-07T14:28:55.788Z,30.30
2018-06-07T14:31:23.353Z,30.40
2018-06-07T14:33:50.909Z,30.30
2018-06-07T14:36:18.489Z,30.30
2018-06-07T14:38:45.966Z,30.50
2018-06-07T14:41:14.213Z,30.50
2018-06-07T14:43:41.681Z,30.50
2018-06-07T14:46:09.245Z,30.40
2018-06-07T14:48:36.687Z,30.50
2018-06-07T14:51:04.267Z,30.70
2018-06-07T14:53:31.723Z,30.70
2018-06-07T14:55:59.302Z,30.50
2018-06-07T14:58:26.865Z,30.50
2018-06-07T15:00:54.322Z,30.40
2018-06-07T15:03:21.771Z,30.50
2018-06-07T15:05:49.226Z,30.80
2018-06-07T15:08:16.706Z,30.80
2018-06-07T15:10:44.192Z,30.70
2018-06-07T15:13:11.681Z,30.50
2018-06-07T15:15:40.999Z,30.40
2018-06-07T15:18:08.504Z,30.40
2018-06-07T15:20:36.071Z,30.80
2018-06-07T15:23:03.637Z,30.80
2018-06-07T15:25:31.210Z,30.80
2018-06-07T15:27:58.677Z,30.70
2018-06-07T15:30:27.649Z,30.90
2018-06-07T15:32:55.115Z,30.90
2018-06-07T15:35:22.580Z,30.70
2018-06-07T15:37:50.037Z,31.10
2018-06-07T15:40:17.508Z,31.20
2018-06-07T15:42:45.072Z,31.20
2018-06-07T15:45:12.544Z,31.20
2018-06-07T15:47:40.105Z,31.20
2018-06-07T15:50:07.661Z,31.40
2018-06-07T15:52:35.222Z,31.40
2018-06-07T15:55:02.797Z,31.30
2018-06-07T15:57:31.073Z,31.10
2018-06-07T15:59:58.525Z,31.00
2018-06-07T16:02:25.993Z,31.20
2018-06-07T16:04:53.562Z,31.30
2018-06-07T16:07:21.024Z,31.40
2018-06-07T16:09:48.582Z,31.50
2018-06-07T16:12:16.053Z,31.60
2018-06-07T16:14:43.524Z,31.50
2018-06-07T16:17:11.001Z,31.60
2018-06-07T16:19:39.211Z,31.60
2018-06-07T16:22:07.296Z,31.50
2018-06-07T16:24:34.758Z,31.70
2018-06-07T16:27:02.238Z,31.80
2018-06-07T16:29:29.723Z,31.50
2018-06-07T16:31:57.279Z,31.80
2018-06-07T16:34:24.844Z,31.80
2018-06-07T16:36:52.405Z,31.60
2018-06-07T16:39:19.869Z,31.70
2018-06-07T16:41:47.445Z,30.20
2018-06-07T16:44:14.899Z,29.30
2018-06-07T16:46:42.361Z,28.70
2018-06-07T16:49:09.816Z,28.20
2018-06-07T16:51:37.434Z,27.50
2018-06-07T16:54:04.858Z,27.90
2018-06-07T16:56:33.842Z,28.40
2018-06-07T16:59:01.404Z,28.40
2018-06-07T17:01:29.056Z,28.90
2018-06-07T17:03:56.541Z,28.50
2018-06-07T17:06:24.018Z,28.30
2018-06-07T17:08:52.261Z,28.80
2018-06-07T17:11:19.733Z,28.70
2018-06-07T17:13:47.204Z,28.60
2018-06-07T17:16:14.700Z,28.40
2018-06-07T17:18:42.243Z,29.10
2018-06-07T17:21:10.469Z,28.40
2018-06-07T17:23:37.936Z,28.40
2018-06-07T17:26:05.431Z,27.90
2018-06-07T17:28:32.984Z,28.10
2018-06-07T17:31:00.559Z,27.80
2018-06-07T17:33:28.203Z,28.30
2018-06-07T17:35:55.660Z,28.80
2018-06-07T17:38:23.138Z,27.40
2018-06-07T17:40:50.586Z,27.50
2018-06-07T17:43:18.048Z,27.50
2018-06-07T17:45:45.503Z,27.50
2018-06-07T17:48:12.984Z,27.80
2018-06-07T17:50:40.467Z,28.30
2018-06-07T17:53:07.915Z,28.00
2018-06-07T17:55:35.495Z,28.70
2018-06-07T17:58:02.963Z,29.00
2018-06-07T18:00:31.180Z,28.40
2018-06-07T18:02:58.642Z,28.40
2018-06-07T18:05:26.108Z,27.50
2018-06-07T18:07:53.614Z,28.20
2018-06-07T18:10:21.234Z,28.30
2018-06-07T18:12:49.485Z,27.70
2018-06-07T18:15:16.929Z,27.70
2018-06-07T18:17:44.500Z,28.40
2018-06-07T18:20:11.956Z,29.10
2018-06-07T18:22:39.420Z,29.00
2018-06-07T18:25:06.880Z,27.50
2018-06-07T18:27:34.339Z,27.60
2018-06-07T18:30:01.793Z,27.30
2018-06-07T18:32:29.263Z,27.50
2018-06-07T18:34:56.727Z,28.10
2018-06-07T18:37:24.186Z,27.80
2018-06-07T18:39:52.992Z,27.30
2018-06-07T18:42:20.459Z,27.60
2018-06-07T18:44:47.924Z,27.80
2018-06-07T18:47:15.382Z,28.70
2018-06-07T18:49:43.604Z,28.20
2018-06-07T18:52:11.068Z,28.20
2018-06-07T18:54:38.634Z,28.10
2018-06-07T18:57:06.145Z,26.90
2018-06-07T18:59:33.601Z,28.00
2018-06-07T19:02:01.171Z,27.70
2018-06-07T19:04:28.635Z,27.30
2018-06-07T19:06:56.113Z,27.90
2018-06-07T19:09:24.348Z,27.50
2018-06-07T19:11:51.830Z,27.50
2018-06-07T19:14:36.152Z,27.40
2018-06-07T19:17:03.620Z,27.10
2018-06-07T19:19:31.080Z,27.30
2018-06-07T19:21:58.624Z,27.90
2018-06-07T19:24:26.082Z,27.90
2018-06-07T19:26:59.147Z,27.80
2018-06-07T19:29:27.389Z,27.70
2018-06-07T19:31:54.839Z,27.70
2018-06-07T19:34:39.124Z,27.70
2018-06-07T19:37:06.606Z,28.00
2018-06-07T19:39:34.845Z,28.20
2018-06-07T19:42:03.210Z,28.20
2018-06-07T19:44:30.668Z,28.30
2018-06-07T19:46:58.137Z,28.00
2018-06-07T19:49:25.599Z,27.40
2018-06-07T19:51:53.051Z,27.10
2018-06-07T19:54:20.512Z,27.30
2018-06-07T19:56:47.964Z,27.30
2018-06-07T19:59:15.445Z,27.50
2018-06-07T20:01:42.914Z,26.90
2018-06-07T20:04:10.371Z,27.40
2018-06-07T20:06:38.048Z,27.50
2018-06-07T20:09:05.501Z,26.90
2018-06-07T20:11:32.967Z,26.80
2018-06-07T20:14:00.537Z,26.60
2018-06-07T20:16:28.571Z,27.20
2018-06-07T20:18:56.040Z,26.80
2018-06-07T20:21:23.522Z,27.00
2018-06-07T20:23:50.985Z,26.60
2018-06-07T20:26:18.443Z,26.40
2018-06-07T20:28:45.905Z,26.90
2018-06-07T20:31:13.374Z,26.60
2018-06-07T20:33:40.948Z,26.50
2018-06-07T20:36:08.409Z,26.50
2018-06-07T20:38:35.909Z,26.50
2018-06-07T20:41:04.144Z,25.80
2018-06-07T20:43:31.618Z,25.80
2018-06-07T20:45:59.080Z,26.20
2018-06-07T20:48:26.534Z,25.90
2018-06-07T20:50:54.164Z,26.40
2018-06-07T20:53:21.667Z,26.50
2018-06-07T20:55:49.227Z,26.00
2018-06-07T20:58:16.795Z,26.00
2018-06-07T21:00:44.999Z,26.20
2018-06-07T21:03:13.963Z,26.20
2018-06-07T21:05:41.420Z,26.20
2018-06-07T21:08:08.877Z,26.10
2018-06-07T21:10:36.369Z,26.20
2018-06-07T21:13:05.361Z,26.00
2018-06-07T21:15:32.843Z,26.00
2018-06-07T21:18:01.100Z,26.10
2018-06-07T21:20:28.560Z,26.10
2018-06-07T21:22:57.206Z,25.90
2018-06-07T21:25:24.719Z,25.80
2018-06-07T21:27:52.186Z,25.40
2018-06-07T21:30:19.635Z,25.30
2018-06-07T21:32:47.107Z,25.20
2018-06-07T21:35:15.356Z,24.90
2018-06-07T21:37:42.835Z,24.80
2018-06-07T21:40:10.413Z,25.20
2018-06-07T21:42:37.975Z,25.50
2018-06-07T21:45:05.443Z,25.60
2018-06-07T21:47:33.664Z,25.10
2018-06-07T21:50:01.132Z,25.10
2018-06-07T21:52:29.481Z,25.20
2018-06-07T21:54:56.922Z,25.30
2018-06-07T21:57:24.382Z,25.20
2018-06-07T21:59:51.944Z,25.20
2018-06-07T22:02:19.395Z,25.40
2018-06-07T22:04:46.939Z,25.30
2018-06-07T22:07:14.429Z,25.20
2018-06-07T22:09:41.888Z,25.40
2018-06-07T22:12:09.351Z,25.30
2018-06-07T22:14:36.930Z,25.30
2018-06-07T22:17:05.168Z,24.80
2018-06-07T22:19:32.619Z,24.70
2018-06-07T22:22:00.087Z,24.60
2018-06-07T22:24:27.588Z,24.90
2018-06-07T22:26:55.054Z,24.50
2018-06-07T22:29:23.084Z,24.40
2018-06-07T22:31:50.592Z,24.90
2018-06-07T22:34:18.807Z,24.90
2018-06-07T22:36:47.142Z,24.90
2018-06-07T22:39:14.650Z,24.80
2018-06-07T22:41:42.839Z,25.00
2018-06-07T22:44:10.290Z,25.00
2018-06-07T22:46:38.510Z,24.60
2018-06-07T22:49:05.969Z,24.60
2018-06-07T22:51:33.423Z,24.70
2018-06-07T22:54:00.921Z,24.40
2018-06-07T22:56:28.375Z,24.30
2018-06-07T22:58:55.855Z,24.00
2018-06-07T23:01:23.394Z,23.70
2018-06-07T23:03:50.862Z,23.70
2018-06-07T23:06:18.328Z,24.00
2018-06-07T23:08:45.796Z,24.10
2018-06-07T23:11:14.043Z,23.50
2018-06-07T23:13:41.501Z,23.50
2018-06-07T23:16:08.994Z,23.70
2018-06-07T23:18:36.443Z,24.10
2018-06-07T23:21:03.915Z,24.30
2018-06-07T23:23:31.387Z,24.00
2018-06-07T23:25:58.899Z,23.90
2018-06-07T23:28:27.077Z,24.10
2018-06-07T23:30:54.539Z,24.00
2018-06-07T23:33:21.992Z,24.10
2018-06-07T23:35:49.461Z,23.80
2018-06-07T23:38:17.883Z,23.90
2018-06-07T23:40:45.354Z,23.60
2018-06-07T23:43:12.824Z,23.50
2018-06-07T23:45:41.868Z,23.70
2018-06-07T23:48:09.331Z,23.40
2018-06-07T23:50:36.795Z,23.40
2018-06-07T23:53:04.248Z,23.50
2018-06-07T23:55:31.772Z,23.30
2018-06-07T23:58:00.041Z,23.40
